Station: Port Pirie Airport Aws

  Atmospheric Gas Attenuation - ITU Rec 676-11   --------------- db/100km ---------------
Date Time Temp RH % AH g/m3 Dew Point Wind Direction Speed kph Gust kph Barometer mB Rainfall Since 9am 24GHz 47GHz 76GHz 122GHz 134GHz 241GHz
24 19:40 32.1 35 11.88 15.1 19 20 1000.2 0 25.5 25.2 42.1 111.1 112.9 391.6
24 19:30 32.4 35 12.07 15 17 33 1000.6 0 25.9 25.4 42.7 112.5 114.7 397.8
24 19:20 32.7 34 11.92 14.8 35 39 999.9 0 25.6 25.1 41.9 110.6 112.5 390.2
24 19:10 40 10 5.11 2.6 7 9 999.4 0 11.4 15.3 19.3 50.2 39.9 135.9
24 19:00 40 10 5.11 2.6 7 9 1000 0 11.4 15.4 19.3 50.2 39.9 136.0
24 18:50 40 10 5.11 2.6 7 9 999.4 0 11.4 15.3 19.3 50.2 39.9 135.9
24 18:40 40.2 9 4.64 1.3 9 9 999.3 0 10.4 14.8 18.1 47.0 36.0 122.1
24 18:30 40.6 9 4.74 1.6 13 15 999.9 0 10.6 14.9 18.3 47.5 36.7 124.5
24 18:20 40.9 9 4.81 1.8 13 15 999.3 0 10.8 14.9 18.4 47.7 37.1 126.0
24 18:10 41 9 4.83 1.9 13 15 999.3 0 10.8 14.9 18.4 47.8 37.2 126.4
24 18:00 41.2 9 4.88 2 19 24 999.9 0 10.9 14.9 18.5 48.1 37.5 127.6
24 17:50 41.3 9 4.91 2.1 22 24 999.3 0 10.9 14.9 18.5 48.2 37.7 128.2
24 17:40 41.5 9 4.95 2.3 20 22 999.3 0 11.0 15.0 18.6 48.3 37.9 129.1
24 17:30 41.9 9 5.05 2.6 22 28 1000 0 11.2 15.0 18.8 48.8 38.6 131.4
24 17:20 42 9 5.08 2.6 22 24 999.4 0 11.3 15.0 18.8 48.9 38.8 132.0
24 17:10 42.4 8 4.6 1.3 22 28 999.5 0 10.3 14.5 17.6 45.6 34.8 118.1
24 17:00 42.5 8 4.63 1.3 26 32 1000.2 0 10.3 14.5 17.6 45.8 35.0 118.8
24 16:50 42.7 8 4.67 1.5 32 35 999.7 0 10.4 14.5 17.7 45.9 35.2 119.6
24 16:40 43.3 8 4.81 1.9 28 35 999.9 0 10.7 14.6 17.9 46.5 36.1 122.7
24 16:30 44 8 4.98 2.4 24 35 1000.5 0 11.0 14.7 18.2 47.2 37.1 126.5
24 16:20 43.5 8 4.86 2.1 30 35 1000.1 0 10.8 14.6 18.0 46.7 36.4 123.8
24 16:10 43.8 8 4.93 2.3 30 35 1000.3 0 10.9 14.6 18.1 47.0 36.8 125.4
24 16:00 43.4 8 4.84 2 28 35 1001 0 10.7 14.6 18.0 46.7 36.3 123.5
24 15:50 43.7 8 4.91 2.2 24 30 1000.6 0 10.9 14.6 18.1 47.0 36.7 125.0
24 15:40 44.5 8 5.1 2.8 28 35 1000.7 0 11.2 14.7 18.4 47.7 37.9 129.1
24 15:30 43.2 8 4.79 1.9 32 44 1001.4 0 10.6 14.6 17.9 46.5 36.0 122.4
24 15:20 44.3 8 5.05 2.7 30 41 1001 0 11.1 14.7 18.3 47.6 37.6 128.0
24 15:10 43.6 8 4.88 2.1 30 35 1001.2 0 10.8 14.6 18.0 46.9 36.6 124.4
24 15:00 43 9 5.34 3.4 32 46 1002 0 11.8 15.2 19.3 50.2 40.5 138.2
24 14:50 43.5 9 5.47 3.7 32 35 1001.6 0 12.0 15.2 19.5 50.7 41.3 141.0
24 14:40 43.5 9 5.47 3.7 30 32 1001.7 0 12.0 15.2 19.5 50.7 41.3 141.0
24 14:30 42.8 9 5.28 3.2 32 41 1002.5 0 11.6 15.2 19.2 49.9 40.1 136.9
24 14:20 41.8 10 5.59 4 33 39 1002 0 12.3 15.6 20.2 52.5 43.1 147.2
24 14:10 42 10 5.64 4.1 30 33 1002.1 0 12.4 15.6 20.2 52.7 43.4 148.4
24 14:00 41.7 10 5.56 3.9 32 41 1002.8 0 12.2 15.6 20.1 52.4 42.9 146.6
24 13:50 41.7 9 5 2.4 35 41 1002.4 0 11.1 15.1 18.7 48.7 38.4 130.6
24 13:40 41.8 10 5.59 4 30 35 1002.5 0 12.3 15.6 20.2 52.5 43.1 147.3
24 13:30 41.1 10 5.4 3.4 35 41 1003.3 0 11.9 15.6 19.9 51.7 41.9 143.1
24 13:20 41 11 5.91 4.7 32 39 1002.8 0 13.0 16.1 21.2 55.2 46.2 158.1
24 13:10 41.1 11 5.94 4.8 30 35 1003 0 13.0 16.1 21.2 55.4 46.4 158.8
24 13:00 42 10 5.64 4.1 28 39 1003.7 0 12.4 15.7 20.3 52.8 43.5 148.6
24 12:50 40.9 10 5.34 3.3 30 33 1003.2 0 11.8 15.5 19.8 51.4 41.5 141.6
24 12:40 40.6 12 6.32 5.7 33 39 1003.3 0 13.8 16.6 22.3 58.3 49.9 171.1
24 12:30 40.2 12 6.19 5.4 30 37 1004.1 0 13.5 16.6 22.1 57.7 49.0 168.1
24 12:20 40.6 11 5.79 4.4 32 37 1003.5 0 12.7 16.1 21.0 54.7 45.4 155.3
24 12:10 41.7 10 5.56 3.9 28 32 1003.5 0 12.2 15.7 20.1 52.5 42.9 146.7
24 12:00 41.9 10 5.62 4 33 43 1004.2 0 12.3 15.7 20.3 52.8 43.4 148.2
24 11:50 41.3 10 5.45 3.6 33 37 1003.7 0 12.0 15.6 20.0 52.0 42.2 144.2
24 11:40 40.8 10 5.32 3.2 32 37 1003.8 0 11.8 15.6 19.8 51.4 41.4 141.3
24 11:30 40.8 10 5.32 3.2 30 41 1004.4 0 11.8 15.6 19.8 51.4 41.4 141.4
24 11:20 41.1 11 5.94 4.8 24 26 1003.9 0 13.0 16.1 21.3 55.4 46.4 158.9
24 11:10 41.2 10 5.42 3.5 28 32 1004 0 12.0 15.6 19.9 51.9 42.1 143.6
24 11:00 40.3 11 5.7 4.2 26 37 1004.6 0 12.6 16.0 20.9 54.3 44.9 153.4
24 10:50 40.5 11 5.76 4.3 24 26 1004 0 12.7 16.1 20.9 54.6 45.2 154.7
24 10:40 40.2 11 5.68 4.1 24 28 1004 0 12.5 16.0 20.8 54.2 44.7 152.9
24 10:30 40.1 10 5.13 2.7 24 35 1004.7 0 11.4 15.5 19.5 50.6 40.2 137.0
24 10:20 40.3 10 5.19 2.8 19 28 1004.2 0 11.5 15.5 19.6 50.9 40.6 138.3
24 10:10 38.8 10 4.81 1.7 20 24 1004.3 0 10.8 15.4 18.9 49.2 38.1 129.6
24 10:00 38.9 11 5.32 3.1 24 32 1005 0 11.8 15.9 20.2 52.6 42.4 144.5
24 09:50 37.6 11 4.98 2.1 20 26 1004.4 0 11.2 15.7 19.6 51.0 40.1 136.4
24 09:40 37.2 11 4.87 1.8 20 24 1004.5 0 11.0 15.7 19.4 50.5 39.4 133.7
24 09:30 37 11 4.82 1.7 24 33 1005.1 0 10.9 15.7 19.4 50.3 39.1 132.6
24 09:20 36.9 11 4.8 1.6 24 28 1004.5 0 10.8 15.6 19.3 50.2 38.9 132.1
24 09:10 36.9 11 4.8 1.6 24 26 1004.4 0 10.8 15.6 19.3 50.2 38.9 132.1
24 09:00 37.1 10 4.41 0.4 22 28 1005 0 10.0 15.2 18.3 47.4 35.6 120.3
24 08:50 36.7 10 4.32 0.1 24 28 1004.4 0 9.9 15.2 18.2 47.0 35.0 118.1
24 08:40 36.3 11 4.65 1.2 17 20 1004.4 0 10.6 15.6 19.1 49.5 37.9 128.5
24 08:30 35.1 13 5.17 2.6 9 13 1005 0 11.6 16.3 20.7 53.9 43.0 146.2
24 08:20 33.3 19 6.87 6.6 7 9 1004.3 0 15.2 18.6 25.9 67.7 59.6 204.6
24 08:10 32 23 7.77 8.3 7 7 1004.2 0 17.1 19.9 29.0 75.9 69.4 238.8
24 08:00 30.7 27 8.5 9.6 0 6 1004.8 0 18.6 21.1 31.7 83.2 78.0 269.1
24 07:50 30.2 28 8.58 9.7 6 6 1004.1 0 18.8 21.3 32.1 84.4 79.3 273.5
24 07:40 29.7 29 8.65 9.8 6 6 1004 0 19.0 21.5 32.6 85.5 80.5 277.8
24 07:30 28.8 31 8.81 10 9 13 1004.6 0 19.3 22.0 33.5 87.8 83.2 287.0
24 07:20 28.3 30 8.29 9.1 13 13 1004 0 18.3 21.4 31.9 83.8 78.0 268.9
24 07:10 27.9 26 7.03 6.6 11 13 1003.9 0 15.7 19.8 28.1 73.4 65.2 223.7
24 07:00 26.8 20 5.09 2 9 17 1004.6 0 11.7 17.7 22.6 58.7 46.6 158.2
24 06:50 26.1 20 4.9 1.4 13 13 1003.8 0 11.4 17.6 22.2 57.6 45.1 152.9
24 06:40 26.2 18 4.43 0 7 7 1003.6 0 10.4 17.0 20.8 53.9 40.5 136.8
24 06:30 26.8 17 4.33 -0.3 7 9 1004.1 0 10.2 16.8 20.4 52.8 39.3 132.6
24 06:20 27.5 17 4.5 0.3 0 0 1003.4 0 10.5 16.8 20.7 53.6 40.6 137.1
24 06:10 27.4 18 4.74 1 0 0 1003.4 0 11.0 17.1 21.4 55.5 42.9 145.2
24 06:00 28 18 4.9 1.5 7 11 1004 0 11.3 17.2 21.7 56.3 44.1 149.6
24 05:50 27.6 19 5.05 1.9 7 9 1003.4 0 11.6 17.5 22.2 57.7 45.7 155.2
24 05:40 27.2 19 4.94 1.6 15 15 1003.4 0 11.4 17.4 22.0 57.1 44.9 152.3
24 05:30 28.5 14 3.91 -1.6 9 11 1003.9 0 9.2 16.0 18.8 48.6 34.7 116.5
24 05:20 30.3 14 4.32 -0.1 7 9 1003.2 0 10.0 16.1 19.5 50.5 37.6 126.9
24 04:50 32.7 10 3.5 -2.9 24 26 1003.1 0 8.3 14.9 16.8 43.4 29.5 98.6
24 04:40 32.9 9 3.19 -4.1 17 20 1003.2 0 7.7 14.5 16.0 41.3 26.9 89.2
24 04:30 32.7 10 3.5 -2.9 13 17 1003.7 0 8.3 14.9 16.9 43.5 29.6 98.7
24 04:20 33.2 9 3.24 -3.9 17 19 1003.1 0 7.8 14.5 16.1 41.4 27.2 90.4
24 04:10 33 9 3.21 -4 17 19 1003.1 0 7.7 14.5 16.1 41.3 27.0 89.7
24 04:00 33.4 9 3.27 -3.7 20 35 1003.8 0 7.8 14.6 16.2 41.6 27.4 91.1
24 03:50 34.1 9 3.4 -3.2 33 39 1003.1 0 8.1 14.6 16.3 42.1 28.2 94.2
24 03:40 34 9 3.38 -3.3 30 39 1003.2 0 8.0 14.6 16.3 42.0 28.1 93.7
24 03:30 34.1 9 3.4 -3.2 30 37 1004 0 8.1 14.6 16.4 42.1 28.3 94.2
24 03:20 34 9 3.38 -3.3 28 33 1003.5 0 8.0 14.6 16.3 42.0 28.1 93.7
24 03:10 34.2 9 3.41 -3.2 26 37 1003.6 0 8.1 14.6 16.4 42.1 28.3 94.4
24 03:00 34.1 9 3.4 -3.2 28 37 1004.4 0 8.1 14.6 16.4 42.2 28.3 94.3
24 02:50 34.3 9 3.43 -3.1 28 35 1003.8 0 8.1 14.6 16.4 42.2 28.4 94.9

Last Refresh: 24-Jan-2021 19:46:55

Most of the information presented on this site is sourced from the Bureau of Meteorology.  Copyright in all material sourced from the Bureau of Meteorology resides with the Commonwealth of Australia.